Terminal Aerodrome Forecast
Issued by NWS

Home | Current Version | Previous Version | Text Only | Print | Product List | Glossary On
Versions: 1 2 3 4 5 6 7 8 9 10 11 12 13 14 15 16 17 18 19 20 21 22 23 24 25 26 27 28 29
000
FTUS45 KGJT 290533
TAFMTJ
TAF
KMTJ 290533Z 2906/3006 12007KT P6SM FEW120
     FM291500 01003KT P6SM SCT200
     FM292300 32006KT P6SM VCTS SCT080CB BKN140
     FM300200 14006KT P6SM SCT100 BKN200=

USA.gov is the U.S. government's official web portal to all federal, state and local government web resources and services.